sensor_id;sensor_type;location;lat;lon;timestamp;P1;durP1;ratioP1;P2;durP2;ratioP2
7683;SDS011;3884;48.616;12.872;2023-10-13T00:01:10;8.90;;;6.00;;
7683;SDS011;3884;48.616;12.872;2023-10-13T00:03:38;9.37;;;7.13;;
7683;SDS011;3884;48.616;12.872;2023-10-13T00:06:06;8.20;;;5.70;;
7683;SDS011;3884;48.616;12.872;2023-10-13T00:08:33;9.33;;;5.50;;
7683;SDS011;3884;48.616;12.872;2023-10-13T00:11:03;9.13;;;5.77;;
7683;SDS011;3884;48.616;12.872;2023-10-13T00:13:30;11.27;;;6.07;;
7683;SDS011;3884;48.616;12.872;2023-10-13T00:16:06;10.93;;;6.80;;
7683;SDS011;3884;48.616;12.872;2023-10-13T00:18:36;9.53;;;6.07;;
7683;SDS011;3884;48.616;12.872;2023-10-13T00:21:09;10.13;;;7.10;;
7683;SDS011;3884;48.616;12.872;2023-10-13T00:23:39;14.47;;;6.77;;
7683;SDS011;3884;48.616;12.872;2023-10-13T00:26:08;8.77;;;6.33;;
7683;SDS011;3884;48.616;12.872;2023-10-13T00:28:36;9.00;;;5.80;;
7683;SDS011;3884;48.616;12.872;2023-10-13T00:31:11;8.73;;;6.17;;
7683;SDS011;3884;48.616;12.872;2023-10-13T00:33:41;10.07;;;6.40;;
7683;SDS011;3884;48.616;12.872;2023-10-13T00:36:12;9.17;;;6.30;;
7683;SDS011;3884;48.616;12.872;2023-10-13T00:38:44;7.77;;;5.57;;
7683;SDS011;3884;48.616;12.872;2023-10-13T00:41:13;10.33;;;5.67;;
7683;SDS011;3884;48.616;12.872;2023-10-13T00:43:45;9.43;;;5.83;;
7683;SDS011;3884;48.616;12.872;2023-10-13T00:46:30;9.10;;;5.80;;
7683;SDS011;3884;48.616;12.872;2023-10-13T00:49:00;10.13;;;5.97;;
7683;SDS011;3884;48.616;12.872;2023-10-13T00:51:30;10.53;;;5.53;;
7683;SDS011;3884;48.616;12.872;2023-10-13T00:53:58;8.03;;;6.17;;
7683;SDS011;3884;48.616;12.872;2023-10-13T00:56:27;9.73;;;6.37;;
7683;SDS011;3884;48.616;12.872;2023-10-13T00:58:56;7.73;;;5.60;;
7683;SDS011;3884;48.616;12.872;2023-10-13T01:01:27;9.07;;;6.27;;
7683;SDS011;3884;48.616;12.872;2023-10-13T01:03:55;9.30;;;5.53;;
7683;SDS011;3884;48.616;12.872;2023-10-13T01:06:25;9.33;;;6.33;;
7683;SDS011;3884;48.616;12.872;2023-10-13T01:08:56;9.60;;;6.67;;
7683;SDS011;3884;48.616;12.872;2023-10-13T01:11:36;7.63;;;6.13;;
7683;SDS011;3884;48.616;12.872;2023-10-13T01:14:03;10.27;;;6.20;;
7683;SDS011;3884;48.616;12.872;2023-10-13T01:16:30;9.93;;;6.63;;
7683;SDS011;3884;48.616;12.872;2023-10-13T01:18:56;9.53;;;6.43;;
7683;SDS011;3884;48.616;12.872;2023-10-13T01:21:26;8.07;;;5.90;;
7683;SDS011;3884;48.616;12.872;2023-10-13T01:23:55;8.70;;;5.87;;
7683;SDS011;3884;48.616;12.872;2023-10-13T01:26:22;8.43;;;6.27;;
7683;SDS011;3884;48.616;12.872;2023-10-13T01:28:49;7.33;;;5.30;;
7683;SDS011;3884;48.616;12.872;2023-10-13T01:31:19;7.63;;;5.80;;
7683;SDS011;3884;48.616;12.872;2023-10-13T01:33:52;9.23;;;5.83;;
7683;SDS011;3884;48.616;12.872;2023-10-13T01:36:23;7.83;;;5.63;;
7683;SDS011;3884;48.616;12.872;2023-10-13T01:38:50;11.50;;;6.27;;
7683;SDS011;3884;48.616;12.872;2023-10-13T01:41:19;8.73;;;6.37;;
7683;SDS011;3884;48.616;12.872;2023-10-13T01:43:45;9.80;;;6.27;;
7683;SDS011;3884;48.616;12.872;2023-10-13T01:46:14;10.87;;;6.77;;
7683;SDS011;3884;48.616;12.872;2023-10-13T01:48:41;9.87;;;6.97;;
7683;SDS011;3884;48.616;12.872;2023-10-13T01:51:09;8.27;;;6.27;;
7683;SDS011;3884;48.616;12.872;2023-10-13T01:53:39;9.23;;;7.10;;
7683;SDS011;3884;48.616;12.872;2023-10-13T01:56:07;15.23;;;7.37;;
7683;SDS011;3884;48.616;12.872;2023-10-13T01:58:38;9.20;;;6.83;;
7683;SDS011;3884;48.616;12.872;2023-10-13T02:01:08;8.70;;;6.67;;
7683;SDS011;3884;48.616;12.872;2023-10-13T02:03:35;9.10;;;7.07;;
7683;SDS011;3884;48.616;12.872;2023-10-13T02:06:06;10.63;;;7.33;;
7683;SDS011;3884;48.616;12.872;2023-10-13T02:08:35;10.43;;;7.40;;
7683;SDS011;3884;48.616;12.872;2023-10-13T02:11:05;9.40;;;6.57;;
7683;SDS011;3884;48.616;12.872;2023-10-13T02:13:34;10.30;;;6.73;;
7683;SDS011;3884;48.616;12.872;2023-10-13T02:16:08;9.80;;;6.20;;
7683;SDS011;3884;48.616;12.872;2023-10-13T02:18:37;10.07;;;6.87;;
7683;SDS011;3884;48.616;12.872;2023-10-13T02:21:08;10.07;;;6.90;;
7683;SDS011;3884;48.616;12.872;2023-10-13T02:23:38;10.17;;;6.77;;
7683;SDS011;3884;48.616;12.872;2023-10-13T02:26:10;7.63;;;6.07;;
7683;SDS011;3884;48.616;12.872;2023-10-13T02:28:38;9.60;;;6.37;;
7683;SDS011;3884;48.616;12.872;2023-10-13T02:31:05;10.10;;;6.67;;
7683;SDS011;3884;48.616;12.872;2023-10-13T02:33:33;10.17;;;6.50;;
7683;SDS011;3884;48.616;12.872;2023-10-13T02:36:01;10.97;;;6.70;;
7683;SDS011;3884;48.616;12.872;2023-10-13T02:38:30;9.20;;;6.37;;
7683;SDS011;3884;48.616;12.872;2023-10-13T02:41:00;7.23;;;6.10;;
7683;SDS011;3884;48.616;12.872;2023-10-13T02:43:31;12.33;;;6.80;;
7683;SDS011;3884;48.616;12.872;2023-10-13T02:46:02;9.90;;;6.57;;
7683;SDS011;3884;48.616;12.872;2023-10-13T02:48:29;7.43;;;6.20;;
7683;SDS011;3884;48.616;12.872;2023-10-13T02:51:07;9.53;;;6.27;;
7683;SDS011;3884;48.616;12.872;2023-10-13T02:53:41;10.30;;;6.70;;
7683;SDS011;3884;48.616;12.872;2023-10-13T02:56:12;9.90;;;6.60;;
7683;SDS011;3884;48.616;12.872;2023-10-13T02:58:39;8.73;;;6.90;;
7683;SDS011;3884;48.616;12.872;2023-10-13T03:01:10;9.80;;;5.67;;
7683;SDS011;3884;48.616;12.872;2023-10-13T03:03:44;10.03;;;5.90;;
7683;SDS011;3884;48.616;12.872;2023-10-13T03:06:16;10.50;;;6.23;;
7683;SDS011;3884;48.616;12.872;2023-10-13T03:08:46;9.30;;;5.83;;
7683;SDS011;3884;48.616;12.872;2023-10-13T03:11:15;8.17;;;5.80;;
7683;SDS011;3884;48.616;12.872;2023-10-13T03:13:47;8.50;;;5.80;;
7683;SDS011;3884;48.616;12.872;2023-10-13T03:16:18;8.37;;;5.67;;
7683;SDS011;3884;48.616;12.872;2023-10-13T03:18:46;11.20;;;6.63;;
7683;SDS011;3884;48.616;12.872;2023-10-13T03:21:21;10.60;;;6.57;;
7683;SDS011;3884;48.616;12.872;2023-10-13T03:23:59;10.23;;;6.70;;
7683;SDS011;3884;48.616;12.872;2023-10-13T03:26:32;16.73;;;9.47;;
7683;SDS011;3884;48.616;12.872;2023-10-13T03:29:02;11.50;;;7.40;;
7683;SDS011;3884;48.616;12.872;2023-10-13T03:31:34;8.50;;;6.10;;
7683;SDS011;3884;48.616;12.872;2023-10-13T03:34:04;7.77;;;5.93;;
7683;SDS011;3884;48.616;12.872;2023-10-13T03:36:38;10.20;;;6.00;;
7683;SDS011;3884;48.616;12.872;2023-10-13T03:39:23;10.57;;;6.50;;
7683;SDS011;3884;48.616;12.872;2023-10-13T03:41:56;11.07;;;6.10;;
7683;SDS011;3884;48.616;12.872;2023-10-13T03:44:24;8.40;;;6.43;;
7683;SDS011;3884;48.616;12.872;2023-10-13T03:46:55;8.70;;;6.47;;
7683;SDS011;3884;48.616;12.872;2023-10-13T03:49:34;8.00;;;5.80;;
7683;SDS011;3884;48.616;12.872;2023-10-13T03:52:05;8.80;;;6.57;;
7683;SDS011;3884;48.616;12.872;2023-10-13T03:54:35;10.00;;;5.83;;
7683;SDS011;3884;48.616;12.872;2023-10-13T03:57:06;9.53;;;6.30;;
7683;SDS011;3884;48.616;12.872;2023-10-13T03:59:36;7.07;;;5.43;;
7683;SDS011;3884;48.616;12.872;2023-10-13T04:02:05;5.90;;;5.10;;
7683;SDS011;3884;48.616;12.872;2023-10-13T04:04:38;7.83;;;5.70;;
7683;SDS011;3884;48.616;12.872;2023-10-13T04:07:15;7.30;;;5.73;;
7683;SDS011;3884;48.616;12.872;2023-10-13T04:09:59;9.63;;;6.23;;
7683;SDS011;3884;48.616;12.872;2023-10-13T04:12:40;8.90;;;5.90;;
7683;SDS011;3884;48.616;12.872;2023-10-13T04:15:24;7.37;;;5.23;;
7683;SDS011;3884;48.616;12.872;2023-10-13T04:18:02;6.87;;;5.67;;
7683;SDS011;3884;48.616;12.872;2023-10-13T04:20:39;7.87;;;5.87;;
7683;SDS011;3884;48.616;12.872;2023-10-13T04:23:13;10.53;;;6.27;;
7683;SDS011;3884;48.616;12.872;2023-10-13T04:25:51;7.70;;;5.80;;
7683;SDS011;3884;48.616;12.872;2023-10-13T04:28:34;9.50;;;5.90;;
7683;SDS011;3884;48.616;12.872;2023-10-13T04:31:03;9.70;;;6.30;;
7683;SDS011;3884;48.616;12.872;2023-10-13T04:33:46;9.30;;;6.20;;
7683;SDS011;3884;48.616;12.872;2023-10-13T04:36:21;8.00;;;6.00;;
7683;SDS011;3884;48.616;12.872;2023-10-13T04:39:03;9.50;;;6.07;;
7683;SDS011;3884;48.616;12.872;2023-10-13T04:41:42;9.80;;;5.90;;
7683;SDS011;3884;48.616;12.872;2023-10-13T04:44:08;6.97;;;5.37;;
7683;SDS011;3884;48.616;12.872;2023-10-13T04:46:49;7.47;;;6.13;;
7683;SDS011;3884;48.616;12.872;2023-10-13T04:49:34;8.03;;;5.80;;
7683;SDS011;3884;48.616;12.872;2023-10-13T04:52:15;11.83;;;5.73;;
7683;SDS011;3884;48.616;12.872;2023-10-13T04:55:07;8.93;;;5.93;;
7683;SDS011;3884;48.616;12.872;2023-10-13T04:57:50;9.90;;;6.37;;
7683;SDS011;3884;48.616;12.872;2023-10-13T05:00:25;8.77;;;6.00;;
7683;SDS011;3884;48.616;12.872;2023-10-13T05:03:06;10.17;;;6.20;;
7683;SDS011;3884;48.616;12.872;2023-10-13T05:05:50;8.77;;;6.20;;
7683;SDS011;3884;48.616;12.872;2023-10-13T05:08:34;10.03;;;6.97;;
7683;SDS011;3884;48.616;12.872;2023-10-13T05:11:20;12.30;;;7.07;;
7683;SDS011;3884;48.616;12.872;2023-10-13T05:14:04;8.50;;;6.40;;
7683;SDS011;3884;48.616;12.872;2023-10-13T05:16:48;10.57;;;6.33;;
7683;SDS011;3884;48.616;12.872;2023-10-13T05:19:34;10.80;;;6.13;;
7683;SDS011;3884;48.616;12.872;2023-10-13T05:22:20;12.97;;;6.07;;
7683;SDS011;3884;48.616;12.872;2023-10-13T05:25:05;8.93;;;6.00;;
7683;SDS011;3884;48.616;12.872;2023-10-13T05:27:53;9.83;;;7.13;;
7683;SDS011;3884;48.616;12.872;2023-10-13T05:30:37;11.70;;;7.40;;
7683;SDS011;3884;48.616;12.872;2023-10-13T05:33:22;10.83;;;7.73;;
7683;SDS011;3884;48.616;12.872;2023-10-13T05:36:09;9.60;;;7.43;;
7683;SDS011;3884;48.616;12.872;2023-10-13T05:38:55;9.60;;;6.67;;
7683;SDS011;3884;48.616;12.872;2023-10-13T05:41:41;12.20;;;7.77;;
7683;SDS011;3884;48.616;12.872;2023-10-13T05:44:27;18.93;;;14.83;;
7683;SDS011;3884;48.616;12.872;2023-10-13T05:47:03;15.70;;;13.33;;
7683;SDS011;3884;48.616;12.872;2023-10-13T05:49:53;14.43;;;11.27;;
7683;SDS011;3884;48.616;12.872;2023-10-13T05:52:30;14.47;;;9.80;;
7683;SDS011;3884;48.616;12.872;2023-10-13T05:55:15;11.07;;;8.67;;
7683;SDS011;3884;48.616;12.872;2023-10-13T05:57:59;9.37;;;7.37;;
7683;SDS011;3884;48.616;12.872;2023-10-13T06:00:49;9.23;;;7.03;;
7683;SDS011;3884;48.616;12.872;2023-10-13T06:03:33;9.03;;;7.13;;
7683;SDS011;3884;48.616;12.872;2023-10-13T06:06:17;9.13;;;7.40;;
7683;SDS011;3884;48.616;12.872;2023-10-13T06:09:01;9.73;;;7.13;;
7683;SDS011;3884;48.616;12.872;2023-10-13T06:11:46;9.83;;;7.87;;
7683;SDS011;3884;48.616;12.872;2023-10-13T06:14:30;10.90;;;7.30;;
7683;SDS011;3884;48.616;12.872;2023-10-13T06:17:17;8.37;;;6.43;;
7683;SDS011;3884;48.616;12.872;2023-10-13T06:20:01;8.03;;;5.83;;
7683;SDS011;3884;48.616;12.872;2023-10-13T06:22:50;10.07;;;6.20;;
7683;SDS011;3884;48.616;12.872;2023-10-13T06:25:37;10.07;;;6.33;;
7683;SDS011;3884;48.616;12.872;2023-10-13T06:28:22;9.20;;;6.47;;
7683;SDS011;3884;48.616;12.872;2023-10-13T06:31:08;8.87;;;6.53;;
7683;SDS011;3884;48.616;12.872;2023-10-13T06:33:47;9.43;;;5.80;;
7683;SDS011;3884;48.616;12.872;2023-10-13T06:36:14;10.53;;;6.23;;
7683;SDS011;3884;48.616;12.872;2023-10-13T06:38:43;8.80;;;6.37;;
7683;SDS011;3884;48.616;12.872;2023-10-13T06:41:10;12.13;;;6.50;;
7683;SDS011;3884;48.616;12.872;2023-10-13T06:43:45;10.67;;;6.90;;
7683;SDS011;3884;48.616;12.872;2023-10-13T06:46:25;10.23;;;6.90;;
7683;SDS011;3884;48.616;12.872;2023-10-13T06:48:55;7.43;;;6.50;;
7683;SDS011;3884;48.616;12.872;2023-10-13T06:51:24;7.60;;;5.80;;
7683;SDS011;3884;48.616;12.872;2023-10-13T06:53:56;8.07;;;6.23;;
7683;SDS011;3884;48.616;12.872;2023-10-13T06:56:23;10.77;;;6.33;;
7683;SDS011;3884;48.616;12.872;2023-10-13T06:58:53;9.00;;;6.80;;
7683;SDS011;3884;48.616;12.872;2023-10-13T07:01:25;14.33;;;9.20;;
7683;SDS011;3884;48.616;12.872;2023-10-13T07:03:52;15.17;;;9.30;;
7683;SDS011;3884;48.616;12.872;2023-10-13T07:06:21;11.13;;;8.10;;
7683;SDS011;3884;48.616;12.872;2023-10-13T07:08:48;13.57;;;9.27;;
7683;SDS011;3884;48.616;12.872;2023-10-13T07:11:18;13.23;;;9.33;;
7683;SDS011;3884;48.616;12.872;2023-10-13T07:13:58;11.63;;;8.30;;
7683;SDS011;3884;48.616;12.872;2023-10-13T07:16:26;13.77;;;8.33;;
7683;SDS011;3884;48.616;12.872;2023-10-13T07:19:00;8.73;;;5.87;;
7683;SDS011;3884;48.616;12.872;2023-10-13T07:21:33;7.90;;;5.33;;
7683;SDS011;3884;48.616;12.872;2023-10-13T07:24:00;8.40;;;5.83;;
7683;SDS011;3884;48.616;12.872;2023-10-13T07:26:33;9.13;;;6.20;;
7683;SDS011;3884;48.616;12.872;2023-10-13T07:29:02;8.87;;;5.57;;
7683;SDS011;3884;48.616;12.872;2023-10-13T07:31:33;8.93;;;5.97;;
7683;SDS011;3884;48.616;12.872;2023-10-13T07:34:03;7.70;;;4.97;;
7683;SDS011;3884;48.616;12.872;2023-10-13T07:36:39;9.83;;;6.53;;
7683;SDS011;3884;48.616;12.872;2023-10-13T07:39:08;7.30;;;5.10;;
7683;SDS011;3884;48.616;12.872;2023-10-13T07:41:50;8.67;;;4.80;;
7683;SDS011;3884;48.616;12.872;2023-10-13T07:44:20;6.50;;;4.53;;
7683;SDS011;3884;48.616;12.872;2023-10-13T07:46:50;6.70;;;3.97;;
7683;SDS011;3884;48.616;12.872;2023-10-13T07:49:26;9.63;;;4.57;;
7683;SDS011;3884;48.616;12.872;2023-10-13T07:51:58;8.37;;;4.90;;
7683;SDS011;3884;48.616;12.872;2023-10-13T07:54:43;8.23;;;3.90;;
7683;SDS011;3884;48.616;12.872;2023-10-13T07:57:13;7.93;;;4.53;;
7683;SDS011;3884;48.616;12.872;2023-10-13T07:59:42;8.27;;;4.13;;
7683;SDS011;3884;48.616;12.872;2023-10-13T08:02:16;8.37;;;4.40;;
7683;SDS011;3884;48.616;12.872;2023-10-13T08:04:57;6.83;;;4.37;;
7683;SDS011;3884;48.616;12.872;2023-10-13T08:07:25;9.33;;;4.57;;
7683;SDS011;3884;48.616;12.872;2023-10-13T08:09:53;7.10;;;4.90;;
7683;SDS011;3884;48.616;12.872;2023-10-13T08:12:24;7.83;;;4.40;;
7683;SDS011;3884;48.616;12.872;2023-10-13T08:14:52;6.67;;;3.73;;
7683;SDS011;3884;48.616;12.872;2023-10-13T08:17:37;13.90;;;4.10;;
7683;SDS011;3884;48.616;12.872;2023-10-13T08:20:09;7.40;;;3.73;;
7683;SDS011;3884;48.616;12.872;2023-10-13T08:22:39;6.30;;;4.10;;
7683;SDS011;3884;48.616;12.872;2023-10-13T08:25:13;7.87;;;4.23;;
7683;SDS011;3884;48.616;12.872;2023-10-13T08:28:10;9.63;;;4.13;;
7683;SDS011;3884;48.616;12.872;2023-10-13T08:30:55;9.23;;;4.77;;
7683;SDS011;3884;48.616;12.872;2023-10-13T08:33:22;10.67;;;5.13;;
7683;SDS011;3884;48.616;12.872;2023-10-13T08:35:52;9.97;;;5.83;;
7683;SDS011;3884;48.616;12.872;2023-10-13T08:38:44;7.20;;;4.60;;
7683;SDS011;3884;48.616;12.872;2023-10-13T08:41:20;16.47;;;8.30;;
7683;SDS011;3884;48.616;12.872;2023-10-13T08:44:05;22.93;;;14.90;;
7683;SDS011;3884;48.616;12.872;2023-10-13T08:46:34;10.23;;;5.60;;
7683;SDS011;3884;48.616;12.872;2023-10-13T08:49:29;7.10;;;4.00;;
7683;SDS011;3884;48.616;12.872;2023-10-13T08:52:09;7.30;;;3.80;;
7683;SDS011;3884;48.616;12.872;2023-10-13T08:55:11;8.13;;;4.30;;
7683;SDS011;3884;48.616;12.872;2023-10-13T08:58:00;8.30;;;4.17;;
7683;SDS011;3884;48.616;12.872;2023-10-13T09:00:38;8.73;;;3.70;;
7683;SDS011;3884;48.616;12.872;2023-10-13T09:03:31;7.17;;;4.00;;
7683;SDS011;3884;48.616;12.872;2023-10-13T09:06:05;6.17;;;4.10;;
7683;SDS011;3884;48.616;12.872;2023-10-13T09:08:31;11.80;;;4.50;;
7683;SDS011;3884;48.616;12.872;2023-10-13T09:11:11;9.60;;;3.83;;
7683;SDS011;3884;48.616;12.872;2023-10-13T09:13:37;6.37;;;3.87;;
7683;SDS011;3884;48.616;12.872;2023-10-13T09:16:17;9.63;;;4.27;;
7683;SDS011;3884;48.616;12.872;2023-10-13T09:19:07;6.37;;;3.90;;
7683;SDS011;3884;48.616;12.872;2023-10-13T09:21:41;6.40;;;4.10;;
7683;SDS011;3884;48.616;12.872;2023-10-13T09:24:22;5.67;;;3.90;;
7683;SDS011;3884;48.616;12.872;2023-10-13T09:26:59;6.63;;;3.90;;
7683;SDS011;3884;48.616;12.872;2023-10-13T09:29:30;9.07;;;4.03;;
7683;SDS011;3884;48.616;12.872;2023-10-13T09:32:04;8.10;;;3.70;;
7683;SDS011;3884;48.616;12.872;2023-10-13T09:37:23;10.13;;;4.03;;
7683;SDS011;3884;48.616;12.872;2023-10-13T09:39:52;7.30;;;4.03;;
7683;SDS011;3884;48.616;12.872;2023-10-13T09:42:32;9.67;;;3.83;;
7683;SDS011;3884;48.616;12.872;2023-10-13T09:44:59;8.37;;;3.53;;
7683;SDS011;3884;48.616;12.872;2023-10-13T09:47:29;9.23;;;3.77;;
7683;SDS011;3884;48.616;12.872;2023-10-13T09:50:02;10.20;;;3.87;;
7683;SDS011;3884;48.616;12.872;2023-10-13T09:52:38;5.77;;;3.60;;
7683;SDS011;3884;48.616;12.872;2023-10-13T09:55:11;7.83;;;3.53;;
7683;SDS011;3884;48.616;12.872;2023-10-13T09:57:47;6.13;;;3.80;;
7683;SDS011;3884;48.616;12.872;2023-10-13T10:00:23;8.43;;;3.90;;
7683;SDS011;3884;48.616;12.872;2023-10-13T10:03:09;5.63;;;3.13;;
7683;SDS011;3884;48.616;12.872;2023-10-13T10:05:55;6.70;;;3.33;;
7683;SDS011;3884;48.616;12.872;2023-10-13T10:08:28;8.47;;;3.10;;
7683;SDS011;3884;48.616;12.872;2023-10-13T10:11:00;7.33;;;3.40;;
7683;SDS011;3884;48.616;12.872;2023-10-13T10:13:44;7.20;;;3.40;;
7683;SDS011;3884;48.616;12.872;2023-10-13T10:16:26;4.70;;;3.40;;
7683;SDS011;3884;48.616;12.872;2023-10-13T10:19:07;8.63;;;4.37;;
7683;SDS011;3884;48.616;12.872;2023-10-13T10:21:34;5.50;;;3.50;;
7683;SDS011;3884;48.616;12.872;2023-10-13T10:24:01;7.57;;;3.73;;
7683;SDS011;3884;48.616;12.872;2023-10-13T10:26:33;5.80;;;3.77;;
7683;SDS011;3884;48.616;12.872;2023-10-13T10:29:10;11.37;;;3.83;;
7683;SDS011;3884;48.616;12.872;2023-10-13T10:31:39;8.23;;;4.10;;
7683;SDS011;3884;48.616;12.872;2023-10-13T10:34:12;8.00;;;3.60;;
7683;SDS011;3884;48.616;12.872;2023-10-13T10:36:39;10.60;;;3.57;;
7683;SDS011;3884;48.616;12.872;2023-10-13T10:39:09;5.90;;;3.03;;
7683;SDS011;3884;48.616;12.872;2023-10-13T10:41:37;7.00;;;3.57;;
7683;SDS011;3884;48.616;12.872;2023-10-13T10:44:12;7.40;;;3.70;;
7683;SDS011;3884;48.616;12.872;2023-10-13T10:46:42;6.40;;;3.60;;
7683;SDS011;3884;48.616;12.872;2023-10-13T10:49:17;9.47;;;3.80;;
7683;SDS011;3884;48.616;12.872;2023-10-13T10:51:53;4.53;;;3.40;;
7683;SDS011;3884;48.616;12.872;2023-10-13T10:54:27;10.27;;;3.63;;
7683;SDS011;3884;48.616;12.872;2023-10-13T10:56:57;6.40;;;3.57;;
7683;SDS011;3884;48.616;12.872;2023-10-13T10:59:37;11.57;;;4.17;;
7683;SDS011;3884;48.616;12.872;2023-10-13T11:02:05;10.30;;;4.47;;
7683;SDS011;3884;48.616;12.872;2023-10-13T11:04:34;10.10;;;3.87;;
7683;SDS011;3884;48.616;12.872;2023-10-13T11:07:05;8.00;;;4.13;;
7683;SDS011;3884;48.616;12.872;2023-10-13T11:09:34;8.60;;;3.57;;
7683;SDS011;3884;48.616;12.872;2023-10-13T11:12:11;9.27;;;4.13;;
7683;SDS011;3884;48.616;12.872;2023-10-13T11:14:59;7.30;;;3.83;;
7683;SDS011;3884;48.616;12.872;2023-10-13T11:17:27;6.23;;;3.00;;
7683;SDS011;3884;48.616;12.872;2023-10-13T11:20:10;9.37;;;3.80;;
7683;SDS011;3884;48.616;12.872;2023-10-13T11:22:45;7.63;;;3.63;;
7683;SDS011;3884;48.616;12.872;2023-10-13T11:25:22;7.07;;;3.60;;
7683;SDS011;3884;48.616;12.872;2023-10-13T11:27:55;8.27;;;3.80;;
7683;SDS011;3884;48.616;12.872;2023-10-13T11:30:25;5.53;;;3.53;;
7683;SDS011;3884;48.616;12.872;2023-10-13T11:33:07;8.07;;;3.30;;
7683;SDS011;3884;48.616;12.872;2023-10-13T11:35:35;8.57;;;3.57;;
7683;SDS011;3884;48.616;12.872;2023-10-13T11:38:20;6.50;;;3.63;;
7683;SDS011;3884;48.616;12.872;2023-10-13T11:40:53;7.83;;;3.30;;
7683;SDS011;3884;48.616;12.872;2023-10-13T11:43:35;7.90;;;3.33;;
7683;SDS011;3884;48.616;12.872;2023-10-13T11:49:30;7.40;;;3.50;;
7683;SDS011;3884;48.616;12.872;2023-10-13T11:52:00;6.43;;;3.30;;
7683;SDS011;3884;48.616;12.872;2023-10-13T11:54:42;8.27;;;3.50;;
7683;SDS011;3884;48.616;12.872;2023-10-13T11:57:10;7.53;;;3.73;;
7683;SDS011;3884;48.616;12.872;2023-10-13T11:59:37;5.30;;;3.07;;
7683;SDS011;3884;48.616;12.872;2023-10-13T12:02:14;5.27;;;3.50;;
7683;SDS011;3884;48.616;12.872;2023-10-13T12:04:58;6.97;;;3.27;;
7683;SDS011;3884;48.616;12.872;2023-10-13T12:07:36;7.43;;;3.50;;
7683;SDS011;3884;48.616;12.872;2023-10-13T12:10:13;6.77;;;3.60;;
7683;SDS011;3884;48.616;12.872;2023-10-13T12:12:59;6.70;;;3.30;;
7683;SDS011;3884;48.616;12.872;2023-10-13T12:15:32;8.40;;;3.50;;
7683;SDS011;3884;48.616;12.872;2023-10-13T12:18:18;6.53;;;3.50;;
7683;SDS011;3884;48.616;12.872;2023-10-13T12:20:47;8.73;;;3.40;;
7683;SDS011;3884;48.616;12.872;2023-10-13T12:23:15;6.17;;;3.67;;
7683;SDS011;3884;48.616;12.872;2023-10-13T12:25:46;8.87;;;3.97;;
7683;SDS011;3884;48.616;12.872;2023-10-13T12:28:25;8.80;;;3.30;;
7683;SDS011;3884;48.616;12.872;2023-10-13T12:30:56;7.67;;;2.90;;
7683;SDS011;3884;48.616;12.872;2023-10-13T12:33:34;6.70;;;3.30;;
7683;SDS011;3884;48.616;12.872;2023-10-13T12:36:05;7.93;;;3.53;;
7683;SDS011;3884;48.616;12.872;2023-10-13T12:38:34;5.83;;;3.70;;
7683;SDS011;3884;48.616;12.872;2023-10-13T12:41:37;7.83;;;3.47;;
7683;SDS011;3884;48.616;12.872;2023-10-13T12:44:21;4.93;;;3.30;;
7683;SDS011;3884;48.616;12.872;2023-10-13T12:47:06;4.93;;;3.10;;
7683;SDS011;3884;48.616;12.872;2023-10-13T12:52:34;9.13;;;3.70;;
7683;SDS011;3884;48.616;12.872;2023-10-13T12:55:02;7.13;;;3.13;;
7683;SDS011;3884;48.616;12.872;2023-10-13T12:57:34;6.73;;;3.00;;
7683;SDS011;3884;48.616;12.872;2023-10-13T13:00:09;7.00;;;3.70;;
7683;SDS011;3884;48.616;12.872;2023-10-13T13:02:46;7.53;;;2.93;;
7683;SDS011;3884;48.616;12.872;2023-10-13T13:05:16;7.20;;;3.40;;
7683;SDS011;3884;48.616;12.872;2023-10-13T13:07:48;6.87;;;3.10;;
7683;SDS011;3884;48.616;12.872;2023-10-13T13:10:18;5.40;;;3.10;;
7683;SDS011;3884;48.616;12.872;2023-10-13T13:13:06;7.90;;;3.47;;
7683;SDS011;3884;48.616;12.872;2023-10-13T13:15:49;7.53;;;3.43;;
7683;SDS011;3884;48.616;12.872;2023-10-13T13:18:25;6.50;;;3.00;;
7683;SDS011;3884;48.616;12.872;2023-10-13T13:20:53;7.90;;;3.27;;
7683;SDS011;3884;48.616;12.872;2023-10-13T13:23:22;6.37;;;3.30;;
7683;SDS011;3884;48.616;12.872;2023-10-13T13:25:51;7.07;;;3.20;;
7683;SDS011;3884;48.616;12.872;2023-10-13T13:28:18;5.43;;;2.97;;
7683;SDS011;3884;48.616;12.872;2023-10-13T13:30:49;5.50;;;2.70;;
7683;SDS011;3884;48.616;12.872;2023-10-13T13:33:19;9.63;;;2.90;;
7683;SDS011;3884;48.616;12.872;2023-10-13T13:35:52;8.37;;;3.30;;
7683;SDS011;3884;48.616;12.872;2023-10-13T13:38:22;8.03;;;3.00;;
7683;SDS011;3884;48.616;12.872;2023-10-13T13:40:53;8.10;;;3.10;;
7683;SDS011;3884;48.616;12.872;2023-10-13T13:43:20;7.03;;;2.90;;
7683;SDS011;3884;48.616;12.872;2023-10-13T13:46:15;9.90;;;3.37;;
7683;SDS011;3884;48.616;12.872;2023-10-13T13:48:44;7.77;;;3.70;;
7683;SDS011;3884;48.616;12.872;2023-10-13T13:51:27;5.60;;;3.20;;
7683;SDS011;3884;48.616;12.872;2023-10-13T13:53:58;9.07;;;3.47;;
7683;SDS011;3884;48.616;12.872;2023-10-13T13:56:26;8.00;;;3.13;;
7683;SDS011;3884;48.616;12.872;2023-10-13T13:58:54;6.53;;;3.30;;
7683;SDS011;3884;48.616;12.872;2023-10-13T14:01:21;6.33;;;3.10;;
7683;SDS011;3884;48.616;12.872;2023-10-13T14:03:51;8.90;;;3.10;;
7683;SDS011;3884;48.616;12.872;2023-10-13T14:06:22;7.87;;;3.90;;
7683;SDS011;3884;48.616;12.872;2023-10-13T14:08:52;6.93;;;3.47;;
7683;SDS011;3884;48.616;12.872;2023-10-13T14:11:22;11.60;;;3.60;;
7683;SDS011;3884;48.616;12.872;2023-10-13T14:14:09;8.63;;;3.20;;
7683;SDS011;3884;48.616;12.872;2023-10-13T14:16:54;6.80;;;3.00;;
7683;SDS011;3884;48.616;12.872;2023-10-13T14:19:28;11.80;;;3.43;;
7683;SDS011;3884;48.616;12.872;2023-10-13T14:21:56;8.47;;;3.47;;
7683;SDS011;3884;48.616;12.872;2023-10-13T14:24:24;6.07;;;2.87;;
7683;SDS011;3884;48.616;12.872;2023-10-13T14:26:55;9.33;;;2.90;;
7683;SDS011;3884;48.616;12.872;2023-10-13T14:29:22;6.13;;;2.83;;
7683;SDS011;3884;48.616;12.872;2023-10-13T14:31:51;11.23;;;3.60;;
7683;SDS011;3884;48.616;12.872;2023-10-13T14:34:18;6.97;;;2.90;;
7683;SDS011;3884;48.616;12.872;2023-10-13T14:36:48;7.03;;;2.87;;
7683;SDS011;3884;48.616;12.872;2023-10-13T14:39:16;8.47;;;3.50;;
7683;SDS011;3884;48.616;12.872;2023-10-13T14:41:47;9.30;;;3.47;;
7683;SDS011;3884;48.616;12.872;2023-10-13T14:44:25;7.67;;;3.43;;
7683;SDS011;3884;48.616;12.872;2023-10-13T15:31:16;6.77;;;3.80;;
7683;SDS011;3884;48.616;12.872;2023-10-13T15:34:04;4.40;;;2.73;;
7683;SDS011;3884;48.616;12.872;2023-10-13T15:36:38;6.90;;;3.20;;
7683;SDS011;3884;48.616;12.872;2023-10-13T15:39:08;9.53;;;3.40;;
7683;SDS011;3884;48.616;12.872;2023-10-13T15:41:36;10.53;;;3.30;;
7683;SDS011;3884;48.616;12.872;2023-10-13T15:44:04;7.47;;;3.20;;
7683;SDS011;3884;48.616;12.872;2023-10-13T15:46:38;8.00;;;3.20;;
7683;SDS011;3884;48.616;12.872;2023-10-13T15:49:06;6.20;;;3.37;;
7683;SDS011;3884;48.616;12.872;2023-10-13T15:51:33;8.77;;;3.70;;
7683;SDS011;3884;48.616;12.872;2023-10-13T15:54:03;6.77;;;3.37;;
7683;SDS011;3884;48.616;12.872;2023-10-13T15:56:36;11.57;;;3.30;;
7683;SDS011;3884;48.616;12.872;2023-10-13T15:59:07;9.83;;;3.57;;
7683;SDS011;3884;48.616;12.872;2023-10-13T16:01:34;7.50;;;3.73;;
7683;SDS011;3884;48.616;12.872;2023-10-13T16:04:03;8.07;;;3.27;;
7683;SDS011;3884;48.616;12.872;2023-10-13T16:06:36;8.03;;;3.70;;
7683;SDS011;3884;48.616;12.872;2023-10-13T16:09:04;6.10;;;3.30;;
7683;SDS011;3884;48.616;12.872;2023-10-13T16:11:39;7.53;;;3.00;;
7683;SDS011;3884;48.616;12.872;2023-10-13T16:14:12;6.97;;;3.30;;
7683;SDS011;3884;48.616;12.872;2023-10-13T16:16:43;8.70;;;3.70;;
7683;SDS011;3884;48.616;12.872;2023-10-13T16:19:13;7.60;;;3.57;;
7683;SDS011;3884;48.616;12.872;2023-10-13T16:21:42;8.53;;;4.23;;
7683;SDS011;3884;48.616;12.872;2023-10-13T16:24:10;7.27;;;3.43;;
7683;SDS011;3884;48.616;12.872;2023-10-13T16:26:42;10.20;;;3.20;;
7683;SDS011;3884;48.616;12.872;2023-10-13T16:29:10;5.67;;;3.37;;
7683;SDS011;3884;48.616;12.872;2023-10-13T16:31:39;9.30;;;3.97;;
7683;SDS011;3884;48.616;12.872;2023-10-13T16:34:10;8.67;;;4.20;;